• Join FlightAware (Why Join?)
  • Login
  • US Flag 
11:50PM EST


 

Airport Tracker/Info


-or-


 

Live Flight TrackerFlight Track Log ✈ DAL10 ✈ 21-Apr-2013 ✈ KATL - EGLL / LHR

Flight Track Log - Related Links

Times and Time Zones

All times are in EDT time to prevent confusion due to time zone crossing. See the DAL10 flight status page for this flight to view local times or setup timezone preferences in your user account.

Time Position Orientation Groundspeed Altitude Reporting Facility
EDT Latitude Longitude Course Direction KTS MPH feet Rate Location/Type
10:59PM 33.6331 -84.3656 53° Northeast 439 505 3,400  Level Atlanta Center
11:00PM 33.6333 -84.3167 90° East 223 257 4,700 2,220 Climbing Atlanta TRACON
11:01PM 33.7739 -83.9381 54° Northeast  Level FlightAware Approximate
11:02PM 33.8573 -83.7990 54° Northeast  Level FlightAware Approximate
11:03PM 33.9478 -83.6667 53° Northeast  Level FlightAware Approximate
11:04PM 34.0334 -83.5293 53° Northeast  Level FlightAware Approximate
11:05PM 34.1189 -83.3916 53° Northeast  Level FlightAware Approximate
11:06PM 33.9350 -83.7070 90° East 436 502 19,000  Level FlightAware
11:07PM 33.9830 -83.6300 53° Northeast 441 507 20,400 2,100 Climbing FlightAware
11:08PM 34.0340 -83.5490 53° Northeast 454 522 21,800 1,920 Climbing FlightAware
11:08PM 34.0910 -83.4580 53° Northeast 462 532 23,200 1,860 Climbing FlightAware
11:09PM 34.1440 -83.3740 53° Northeast 468 539 24,500 1,680 Climbing FlightAware
11:10PM 34.1840 -83.3100 53° Northeast 484 557 25,200 1,500 Climbing FlightAware
11:10PM 34.2370 -83.2260 53° Northeast 485 558 26,300 1,800 Climbing FlightAware
11:11PM 34.2864 -83.1468 53° Northeast 494 568 27,400 1,620 Climbing FlightAware ADS-B
11:11PM 34.3331 -83.0719 53° Northeast 502 578 28,100 1,080 Climbing FlightAware ADS-B
11:12PM 34.3779 -83.0000 53° Northeast 514 592 28,600 1,260 Climbing FlightAware ADS-B
11:13PM 34.4910 -82.8170 53° Northeast 525 604 30,500 1,380 Climbing FlightAware
11:14PM 34.5590 -82.7070 53° Northeast 527 606 31,600 1,320 Climbing FlightAware
11:15PM 34.6236 -82.6026 53° Northeast 525 604 32,500 1,140 Climbing FlightAware ADS-B
11:15PM 34.6680 -82.5302 53° Northeast 527 606 33,000 420 Climbing FlightAware ADS-B
11:16PM 34.7185 -82.4479 53° Northeast 525 604 33,000  Level FlightAware ADS-B
11:16PM 34.7617 -82.3771 53° Northeast 523 602 33,000  Level FlightAware ADS-B
11:17PM 34.8055 -82.3053 53° Northeast 523 602 33,000  Level FlightAware ADS-B
11:17PM 34.8497 -82.2330 53° Northeast 523 602 33,000  Level FlightAware ADS-B
11:18PM 34.8945 -82.1590 54° Northeast 524 603 33,000  Level FlightAware ADS-B
11:18PM 34.9378 -82.0880 53° Northeast 524 603 33,000  Level FlightAware ADS-B
11:19PM 34.9821 -82.0148 54° Northeast 524 603 33,000  Level FlightAware ADS-B
11:19PM 35.0251 -81.9421 54° Northeast 524 603 33,000  Level FlightAware ADS-B
11:20PM 35.0673 -81.8656 56° Northeast 524 603 33,000  Level FlightAware ADS-B
11:20PM 35.1080 -81.7902 57° Northeast 524 603 33,000  Level FlightAware ADS-B
11:21PM 35.1500 -81.7113 57° Northeast 524 603 33,000  Level FlightAware ADS-B
11:21PM 35.1898 -81.6359 57° Northeast 524 603 33,000  Level FlightAware ADS-B
11:22PM 35.2359 -81.5494 57° Northeast 524 603 33,000  Level FlightAware ADS-B
11:23PM 35.2870 -81.4525 57° Northeast 524 603 33,000  Level FlightAware ADS-B
11:23PM 35.3267 -81.3770 57° Northeast 525 604 33,000  Level FlightAware ADS-B
11:24PM 35.3663 -81.3018 57° Northeast 525 604 33,000  Level FlightAware ADS-B
11:25PM 35.4500 -81.1420 57° Northeast 527 606 33,000  Level FlightAware
11:25PM 35.5030 -81.0400 57° Northeast 527 606 33,000  Level FlightAware
11:26PM 35.5610 -80.9300 57° Northeast 527 606 33,000  Level FlightAware
11:27PM 35.6150 -80.8260 57° Northeast 528 608 33,000  Level FlightAware
11:27PM 35.6590 -80.7400 58° Northeast 528 608 33,000  Level FlightAware
11:28PM 35.6590 -80.7400 58° Northeast 530 610 33,000  Level FlightAware
11:29PM 35.7000 -80.6620 57° Northeast 534 615 33,000  Level FlightAware
11:30PM 35.7460 -80.5750 57° Northeast 534 615 33,000  Level FlightAware
11:30PM 35.7920 -80.4880 57° Northeast 534 615 33,000  Level FlightAware
11:31PM 35.8370 -80.4020 57° Northeast 534 615 33,000  Level FlightAware
11:32PM 35.8950 -80.2930 57° Northeast 534 615 33,000  Level FlightAware
11:33PM 35.9400 -80.2060 57° Northeast 534 615 33,000  Level FlightAware
11:33PM 35.9860 -80.1190 57° Northeast 534 615 33,000  Level FlightAware
11:34PM 36.0320 -80.0320 57° Northeast 534 615 33,000  Level FlightAware
11:35PM 36.0770 -79.9450 57° Northeast 534 615 33,000  Level FlightAware
11:35PM 36.1350 -79.8360 57° Northeast 534 615 33,000  Level FlightAware
11:36PM 36.1800 -79.7480 58° Northeast 534 615 33,000  Level FlightAware
11:37PM 36.2260 -79.6610 57° Northeast 534 615 33,000  Level FlightAware
11:37PM 36.2720 -79.5740 57° Northeast 534 615 33,000  Level FlightAware
11:39PM 36.6550 -78.9010 55° Northeast 541 623 33,000  Level FlightAware
11:40PM 36.7030 -78.8140 55° Northeast 541 623 33,000  Level FlightAware
11:41PM 36.7520 -78.7270 55° Northeast 541 623 33,000  Level FlightAware
11:41PM 36.8010 -78.6400 55° Northeast 541 623 33,000  Level FlightAware
11:42PM 36.8620 -78.5310 55° Northeast 541 623 33,000  Level FlightAware
11:43PM 36.9110 -78.4440 55° Northeast 541 623 33,000  Level FlightAware
11:44PM 37.0200 -78.2310 57° Northeast 533 613 33,000  Level FlightAware
11:44PM 37.0670 -78.1440 56° Northeast 533 613 33,000  Level FlightAware
11:45PM 37.1140 -78.0570 56° Northeast 533 613 33,000  Level FlightAware
11:45PM 37.2130 -78.0010 24° Northeast 538 619 33,000  Level FlightAware
11:46PM 37.2830 -77.9240 41° Northeast 537 618 33,000  Level FlightAware
11:47PM 37.3720 -77.8260 41° Northeast 536 617 33,000  Level FlightAware
11:48PM 37.4470 -77.7450 41° Northeast 535 616 33,000  Level FlightAware
11:48PM 37.5190 -77.6650 41° Northeast 535 616 33,000  Level FlightAware
11:49PM 37.6000 -77.5760 41° Northeast 534 615 33,000  Level FlightAware
11:50PM 37.6790 -77.4900 41° Northeast 534 615 33,000  Level FlightAware
11:50PM 37.7600 -77.3990 42° Northeast 534 615 33,000  Level FlightAware
11:51PM 37.7942 -77.3613 41° Northeast 533 613 33,000  Level FlightAware ADS-B
11:51PM 37.8567 -77.2914 41° Northeast 533 613 33,000  Level FlightAware ADS-B
11:52PM 37.9130 -77.2287 41° Northeast 532 612 33,000  Level FlightAware ADS-B
11:52PM 37.9688 -77.1662 41° Northeast 532 612 33,000  Level FlightAware ADS-B
11:53PM 38.0275 -77.1003 41° Northeast 531 611 33,000  Level FlightAware ADS-B
11:53PM 38.0828 -77.0382 41° Northeast 531 611 33,000  Level FlightAware ADS-B
11:54PM 38.1473 -76.9654 42° Northeast 530 610 33,000  Level FlightAware ADS-B
11:54PM 38.2029 -76.9024 42° Northeast 530 610 33,000  Level FlightAware ADS-B
11:55PM 38.2592 -76.8386 42° Northeast 530 610 33,000  Level FlightAware ADS-B
11:55PM 38.3159 -76.7744 42° Northeast 530 610 33,000  Level FlightAware ADS-B
11:56PM 38.3722 -76.7106 42° Northeast 530 610 33,000  Level FlightAware ADS-B
11:56PM 38.4271 -76.6478 42° Northeast 530 610 33,000  Level FlightAware ADS-B
11:57PM 38.4825 -76.5845 42° Northeast 529 609 33,000  Level FlightAware ADS-B
11:57PM 38.5387 -76.5202 42° Northeast 528 608 33,000  Level FlightAware ADS-B
11:58PM 38.5938 -76.4570 42° Northeast 527 606 33,000  Level FlightAware ADS-B
11:58PM 38.6491 -76.3934 42° Northeast 526 605 33,000  Level FlightAware ADS-B
11:59PM 38.7035 -76.3306 42° Northeast 525 604 33,000  Level FlightAware ADS-B
11:59PM 38.7577 -76.2680 42° Northeast 525 604 33,000  Level FlightAware ADS-B
12:00AM 38.8121 -76.2051 42° Northeast 522 601 33,000  Level FlightAware ADS-B
12:00AM 38.8666 -76.1419 42° Northeast 522 601 33,000  Level FlightAware ADS-B
12:01AM 38.9201 -76.0794 42° Northeast 520 598 33,000  Level FlightAware ADS-B
12:01AM 38.9742 -76.0166 42° Northeast 520 598 33,000  Level FlightAware ADS-B
12:02AM 39.0284 -75.9532 42° Northeast 519 597 33,000  Level FlightAware ADS-B
12:02AM 39.0821 -75.8904 42° Northeast 518 596 33,000  Level FlightAware ADS-B
12:03AM 39.1379 -75.8248 42° Northeast 517 595 33,000  Level FlightAware ADS-B
12:03AM 39.1917 -75.7618 42° Northeast 517 595 33,000  Level FlightAware ADS-B
12:04AM 39.2447 -75.6992 42° Northeast 517 595 33,000  Level FlightAware ADS-B
12:04AM 39.2979 -75.6365 42° Northeast 517 595 33,000  Level FlightAware ADS-B
12:05AM 39.3513 -75.5732 43° Northeast 517 595 33,000  Level FlightAware ADS-B
12:05AM 39.4047 -75.5098 43° Northeast 517 595 33,000  Level FlightAware ADS-B
12:06AM 39.4624 -75.4411 43° Northeast 517 595 33,000  Level FlightAware ADS-B
12:07AM 39.5161 -75.3770 43° Northeast 517 595 33,000  Level FlightAware ADS-B
12:07AM 39.5717 -75.3104 43° Northeast 516 594 33,000  Level FlightAware ADS-B
12:08AM 39.6249 -75.2467 43° Northeast 516 594 33,000  Level FlightAware ADS-B
12:08AM 39.6773 -75.1838 43° Northeast 517 595 33,000  Level FlightAware ADS-B
12:09AM 39.7298 -75.1207 43° Northeast 517 595 33,000  Level FlightAware ADS-B
12:09AM 39.7825 -75.0571 43° Northeast 517 595 33,000  Level FlightAware ADS-B
12:10AM 39.8351 -74.9935 43° Northeast 517 595 33,000  Level FlightAware ADS-B
12:10AM 39.8890 -74.9281 43° Northeast 518 596 33,000  Level FlightAware ADS-B
12:11AM 39.9404 -74.8604 45° Northeast 519 597 33,000  Level FlightAware ADS-B
12:11AM 39.9895 -74.7907 47° Northeast 520 598 33,000  Level FlightAware ADS-B
12:12AM 40.0388 -74.7200 48° Northeast 521 600 33,000  Level FlightAware ADS-B
12:12AM 40.0877 -74.6495 48° Northeast 522 601 33,000  Level FlightAware ADS-B
12:13AM 40.1366 -74.5789 48° Northeast 523 602 33,000  Level FlightAware ADS-B
12:13AM 40.1868 -74.5048 48° Northeast 524 603 33,000  Level FlightAware ADS-B
12:14AM 40.2334 -74.4301 51° Northeast 525 604 33,000  Level FlightAware ADS-B
12:14AM 40.2788 -74.3547 52° Northeast 526 605 33,000  Level FlightAware ADS-B
12:15AM 40.3249 -74.2776 52° Northeast 526 605 33,000  Level FlightAware ADS-B
12:15AM 40.3698 -74.2023 52° Northeast 527 606 33,000  Level FlightAware ADS-B
12:16AM 40.4161 -74.1243 52° Northeast 527 606 33,000  Level FlightAware ADS-B
12:16AM 40.4612 -74.0479 52° Northeast 528 608 33,000  Level FlightAware ADS-B
12:17AM 40.5067 -73.9709 52° Northeast 528 608 33,000  Level FlightAware ADS-B
12:17AM 40.5527 -73.8928 52° Northeast 527 606 33,000  Level FlightAware ADS-B
12:18AM 40.5975 -73.8170 52° Northeast 525 604 33,000  Level FlightAware ADS-B
12:18AM 40.6446 -73.7434 50° Northeast 524 603 33,000  Level FlightAware ADS-B
12:19AM 40.6951 -73.6708 47° Northeast 524 603 33,000  Level FlightAware ADS-B
12:19AM 40.7447 -73.6002 47° Northeast 524 603 33,000  Level FlightAware ADS-B
12:20AM 40.7945 -73.5294 47° Northeast 523 602 33,000  Level FlightAware ADS-B
12:20AM 40.8456 -73.4565 47° Northeast 523 602 33,000  Level FlightAware ADS-B
12:21AM 40.8952 -73.3856 47° Northeast 523 602 33,000  Level FlightAware ADS-B
12:21AM 40.9460 -73.3131 47° Northeast 524 603 33,000  Level FlightAware ADS-B
12:22AM 40.9951 -73.2425 47° Northeast 523 602 33,000  Level FlightAware ADS-B
12:22AM 41.0452 -73.1706 47° Northeast 523 602 33,000  Level FlightAware ADS-B
12:23AM 41.0945 -73.0997 47° Northeast 522 601 33,000  Level FlightAware ADS-B
12:23AM 41.1439 -73.0286 47° Northeast 521 600 33,000  Level FlightAware ADS-B
12:24AM 41.1936 -72.9569 47° Northeast 521 600 33,000  Level FlightAware ADS-B
12:24AM 41.2427 -72.8856 48° Northeast 521 600 33,000  Level FlightAware ADS-B
12:25AM 41.2926 -72.8130 48° Northeast 520 598 33,000  Level FlightAware ADS-B
12:25AM 41.3422 -72.7405 48° Northeast 520 598 33,000  Level FlightAware ADS-B
12:26AM 41.3941 -72.6651 47° Northeast 519 597 33,000  Level FlightAware ADS-B
12:26AM 41.4510 -72.5817 48° Northeast 519 597 33,000  Level FlightAware ADS-B
12:27AM 41.4990 -72.5110 48° Northeast 518 596 33,000  Level FlightAware
12:28AM 41.5650 -72.4140 48° Northeast 518 596 33,000  Level FlightAware
12:28AM 41.6290 -72.3200 48° Northeast 519 597 33,000  Level FlightAware
12:29AM 41.6980 -72.2180 48° Northeast 519 597 33,000  Level FlightAware
12:30AM 41.7600 -72.1260 48° Northeast 519 597 33,000  Level FlightAware
12:31AM 41.8350 -72.0140 48° Northeast 519 597 33,000  Level FlightAware
12:32AM 41.9690 -71.7840 52° Northeast 523 602 33,000  Level FlightAware
12:33AM 42.0190 -71.6470 64° Northeast 523 602 33,000  Level FlightAware
12:34AM 42.0660 -71.5160 64° Northeast 523 602 33,000  Level FlightAware
12:34AM 42.1060 -71.4050 64° Northeast 523 602 33,000  Level FlightAware
12:35AM 42.1550 -71.2680 64° Northeast 524 603 33,000  Level FlightAware
12:36AM 42.1900 -71.1680 65° Northeast 524 603 33,000  Level FlightAware
12:36AM 42.2390 -71.0300 64° Northeast 525 604 33,000  Level FlightAware
12:37AM 42.2850 -70.9010 64° Northeast 524 603 33,000  Level FlightAware
12:38AM 42.3210 -70.7990 64° Northeast 525 604 33,000  Level FlightAware
12:38AM 42.3680 -70.6630 65° Northeast 525 604 33,000  Level FlightAware
12:39AM 42.4140 -70.5320 65° Northeast 526 605 33,000  Level FlightAware
12:40AM 42.4560 -70.4110 65° Northeast 526 605 33,000  Level FlightAware
12:41AM 42.5040 -70.2710 65° Northeast 526 605 33,000  Level FlightAware
12:41AM 42.5420 -70.1620 65° Northeast 523 602 33,000  Level FlightAware
12:42AM 42.5790 -70.0520 65° Northeast 524 603 33,000  Level FlightAware
12:43AM 42.6310 -69.9010 65° Northeast 526 605 33,000  Level FlightAware
12:43AM 42.6650 -69.8020 65° Northeast 525 604 33,000  Level FlightAware
12:44AM 42.7190 -69.6410 65° Northeast 527 606 33,000  Level FlightAware
12:45AM 42.7500 -69.5490 65° Northeast 527 606 33,000  Level FlightAware
12:45AM 42.8060 -69.3830 65° Northeast 528 608 33,000  Level FlightAware
12:46AM 42.8430 -69.2690 66° East 528 608 33,000  Level FlightAware
12:47AM 42.8780 -69.1640 66° East 529 609 33,000  Level FlightAware
12:48AM 42.9320 -69.0000 66° East 530 610 33,000  Level FlightAware
12:48AM 42.9700 -68.8860 65° Northeast 532 612 33,000  Level FlightAware
12:49AM 43.0020 -68.7870 66° East 532 612 33,000  Level FlightAware
12:49AM 43.0440 -68.6600 66° East 533 613 33,000  Level FlightAware
12:50AM 43.0830 -68.5390 66° East 533 613 33,000  Level FlightAware
12:51AM 43.1430 -68.3510 66° East 535 616 33,000  Level FlightAware
12:52AM 43.1790 -68.2380 66° East 536 617 33,000  Level FlightAware
12:52AM 43.2120 -68.1320 67° East 536 617 33,000  Level FlightAware
12:53AM 43.2450 -68.0250 67° East 536 617 33,000  Level FlightAware
12:54AM 43.3150 -67.8130 66° East 540 621 33,000  Level FlightAware
12:55AM 43.4010 -67.5350 67° East 540 621 33,000  Level FlightAware
12:57AM 43.4700 -67.3120 67° East 541 623 33,000 300 Level FlightAware
12:58AM 43.5390 -67.0900 67° East 542 624 33,700 840 Climbing FlightAware
12:59AM 43.6370 -66.8920 56° Northeast 528 608 35,000 540 Climbing FlightAware
01:00AM 43.7480 -66.7150 49° Northeast 528 608 35,000  Level FlightAware
01:02AM 43.8850 -66.4960 49° Northeast 526 605 35,000  Level FlightAware
01:03AM 43.9970 -66.3140 49° Northeast 526 605 35,000  Level FlightAware
01:03AM 44.0630 -66.2070 49° Northeast 526 605 35,000  Level FlightAware
01:04AM 44.1340 -66.0910 50° Northeast 527 606 35,000  Level FlightAware
01:05AM 44.1970 -65.9880 50° Northeast 527 606 35,000  Level FlightAware
01:06AM 44.2670 -65.8720 50° Northeast 528 608 35,000  Level FlightAware
01:06AM 44.3350 -65.7610 49° Northeast 529 609 35,000  Level FlightAware
01:07AM 44.3950 -65.6610 50° Northeast 530 610 35,000  Level FlightAware
01:08AM 44.4690 -65.5380 50° Northeast 531 611 35,000  Level FlightAware
01:08AM 44.5310 -65.4340 50° Northeast 531 611 35,000  Level FlightAware
01:09AM 44.5950 -65.3260 50° Northeast 532 612 35,000  Level FlightAware
01:10AM 44.6620 -65.2120 50° Northeast 531 611 35,000  Level FlightAware
01:10AM 44.7310 -65.0960 50° Northeast 537 618 35,000  Level FlightAware
01:11AM 44.8000 -64.9780 50° Northeast 537 618 35,000  Level FlightAware
01:12AM 44.8690 -64.8610 50° Northeast 537 618 35,000  Level FlightAware
01:13AM 44.9390 -64.7410 50° Northeast 536 617 35,000  Level FlightAware
01:13AM 45.0040 -64.6290 51° Northeast 535 616 35,000  Level FlightAware
01:14AM 45.0670 -64.5210 50° Northeast 536 617 35,000  Level FlightAware
01:15AM 45.1360 -64.4010 51° Northeast 536 617 35,000  Level FlightAware
01:15AM 45.1890 -64.3080 51° Northeast 536 617 35,000  Level FlightAware
01:16AM 45.2580 -64.1870 51° Northeast 534 615 35,000  Level FlightAware
01:17AM 45.3220 -64.0760 51° Northeast 534 615 35,000  Level FlightAware
01:17AM 45.3860 -63.9610 52° Northeast 534 615 35,000  Level FlightAware
01:18AM 45.4510 -63.8480 51° Northeast 534 615 35,000  Level FlightAware
01:19AM 45.5040 -63.7520 52° Northeast 535 616 35,000  Level FlightAware
01:19AM 45.5670 -63.6400 51° Northeast 535 616 35,000  Level FlightAware
01:20AM 45.6340 -63.5230 51° Northeast 535 616 35,000  Level FlightAware
01:21AM 45.6860 -63.4300 51° Northeast 535 616 35,000  Level FlightAware
01:22AM 45.7390 -63.3360 51° Northeast 535 616 35,000  Level FlightAware
01:22AM 45.7920 -63.2420 51° Northeast 535 616 35,000  Level FlightAware
01:23AM 45.8450 -63.1480 51° Northeast 535 616 35,000  Level FlightAware
01:24AM 45.9110 -63.0310 51° Northeast 535 616 35,000  Level FlightAware
01:24AM 45.9640 -62.9370 51° Northeast 535 616 35,000  Level FlightAware
01:25AM 46.0170 -62.8430 51° Northeast 535 616 35,000  Level FlightAware
01:26AM 46.1580 -62.5610 54° Northeast 529 609 35,000  Level FlightAware
01:27AM 46.2250 -62.4360 52° Northeast 530 610 35,000  Level FlightAware
01:27AM 46.2860 -62.3230 52° Northeast 530 610 35,000  Level FlightAware
01:28AM 46.3460 -62.2110 52° Northeast 530 610 35,000  Level FlightAware
01:29AM 46.4140 -62.0820 53° Northeast 531 611 35,000  Level FlightAware
01:29AM 46.4740 -61.9680 53° Northeast 531 611 35,000  Level FlightAware
01:30AM 46.5380 -61.8460 53° Northeast 530 610 35,000  Level FlightAware
01:31AM 46.5980 -61.7310 53° Northeast 530 610 35,000  Level FlightAware
01:31AM 46.6570 -61.6180 53° Northeast 531 611 35,000  Level FlightAware
01:32AM 46.7240 -61.4890 53° Northeast 531 611 35,000  Level FlightAware
01:33AM 46.7840 -61.3730 53° Northeast 532 612 35,000  Level FlightAware
01:33AM 46.8430 -61.2590 53° Northeast 533 613 35,000  Level FlightAware
01:34AM 46.9090 -61.1300 53° Northeast 533 613 35,000  Level FlightAware
01:35AM 46.9670 -61.0160 53° Northeast 534 615 35,000  Level FlightAware
01:36AM 47.0350 -60.8830 53° Northeast 534 615 35,000  Level FlightAware
01:36AM 47.0940 -60.7670 53° Northeast 534 615 35,000  Level FlightAware
01:37AM 47.1590 -60.6380 53° Northeast 534 615 35,000  Level FlightAware
01:38AM 47.2150 -60.5250 54° Northeast 534 615 35,000  Level FlightAware
01:38AM 47.2730 -60.4080 54° Northeast 534 615 35,000  Level FlightAware
01:39AM 47.3420 -60.2720 53° Northeast 533 613 35,000  Level FlightAware
01:40AM 47.3990 -60.1550 54° Northeast 531 611 35,000  Level FlightAware
01:40AM 47.4570 -60.0380 54° Northeast 531 611 35,000  Level FlightAware
01:41AM 47.5190 -59.9120 54° Northeast 531 611 35,000  Level FlightAware
01:42AM 47.5650 -59.8190 54° Northeast 531 611 35,000  Level FlightAware
01:43AM 47.6260 -59.6940 54° Northeast 531 611 35,000  Level FlightAware
01:43AM 47.6750 -59.5940 54° Northeast 531 611 35,000  Level FlightAware
01:44AM 47.7240 -59.4930 54° Northeast 531 611 35,000  Level FlightAware
01:45AM 47.7730 -59.3930 54° Northeast 531 611 35,000  Level FlightAware
01:45AM 47.8220 -59.2920 54° Northeast 531 611 35,000  Level FlightAware
01:46AM 47.8840 -59.1660 54° Northeast 531 611 35,000  Level FlightAware
01:47AM 47.9330 -59.0650 54° Northeast 531 611 35,000  Level FlightAware
01:47AM 47.9820 -58.9640 54° Northeast 531 611 35,000  Level FlightAware
01:48AM 48.0310 -58.8630 54° Northeast 531 611 35,000  Level FlightAware
01:49AM 48.0800 -58.7620 54° Northeast 531 611 35,000  Level FlightAware
01:50AM 48.1410 -58.6360 54° Northeast 531 611 35,000  Level FlightAware
01:50AM 48.1900 -58.5340 54° Northeast 531 611 35,000  Level FlightAware
01:51AM 48.2400 -58.4330 53° Northeast 531 611 35,000  Level FlightAware
01:52AM 48.4333 -57.9333 53° Northeast 530 610 35,000  Level Gander Center
01:53AM 48.5167 -57.7167 60° Northeast 530 610 35,000  Level Gander Center
01:54AM 48.5833 -57.5667 56° Northeast 530 610 35,000  Level Gander Center
02:00AM 49.0230 -56.4610 56° Northeast 540 621 35,000  Level FlightAware
02:00AM 49.0600 -56.3590 61° Northeast 540 621 35,000  Level FlightAware
02:01AM 49.1120 -56.2170 61° Northeast 540 621 35,000  Level FlightAware
02:02AM 49.1580 -56.0730 64° Northeast 538 619 35,000  Level FlightAware
02:03AM 49.2230 -55.8800 63° Northeast 538 619 35,000  Level FlightAware
02:04AM 49.2620 -55.7640 63° Northeast 538 619 35,000  Level FlightAware
02:04AM 49.3000 -55.6490 63° Northeast 538 619 35,000  Level FlightAware
02:05AM 49.3380 -55.5330 63° Northeast 538 619 35,000  Level FlightAware
02:06AM 49.3860 -55.3880 63° Northeast 538 619 35,000  Level FlightAware
02:06AM 49.4720 -55.1410 62° Northeast 542 624 35,000  Level FlightAware
02:07AM 49.5220 -54.9890 63° Northeast 543 625 35,000  Level FlightAware
02:08AM 49.5690 -54.8450 63° Northeast 544 626 35,000  Level FlightAware
02:08AM 49.6130 -54.7120 63° Northeast 544 626 35,000  Level FlightAware
02:09AM 49.6640 -54.5570 63° Northeast 546 628 35,000  Level FlightAware
02:10AM 49.7080 -54.4180 64° Northeast 547 629 35,000  Level FlightAware
02:11AM 49.7560 -54.2730 63° Northeast 547 629 35,000  Level FlightAware
02:11AM 49.7940 -54.1520 64° Northeast 549 632 35,000  Level FlightAware
02:12AM 49.8500 -53.9740 64° Northeast 551 634 35,000  Level FlightAware
02:13AM 49.9000 -53.8140 64° Northeast 549 632 35,000 540 Level FlightAware
02:13AM 49.9440 -53.6750 64° Northeast 542 624 35,800 660 Climbing FlightAware
02:14AM 49.9940 -53.5160 64° Northeast 547 629 36,000 120 Climbing FlightAware
02:15AM 50.0380 -53.3710 65° Northeast 550 633 36,000  Level FlightAware
02:15AM 50.0780 -53.2430 64° Northeast 548 631 36,000  Level FlightAware
02:16AM 50.1260 -53.0870 64° Northeast 545 627 36,000  Level FlightAware
02:17AM 50.1590 -52.9740 65° Northeast 545 627 36,000  Level FlightAware
02:18AM 50.2240 -52.7620 64° Northeast 544 626 36,000  Level FlightAware
02:18AM 50.2630 -52.6320 65° Northeast 544 626 36,000  Level FlightAware
02:19AM 50.2990 -52.5110 65° Northeast 544 626 36,000  Level FlightAware
02:20AM 50.3450 -52.3540 65° Northeast 547 629 36,000  Level FlightAware
02:20AM 50.3960 -52.1820 65° Northeast 548 631 36,000  Level FlightAware
02:21AM 50.4330 -52.0590 65° Northeast 548 631 36,000  Level FlightAware
02:22AM 50.4690 -51.9360 65° Northeast 548 631 36,000  Level FlightAware
02:22AM 50.5060 -51.8130 65° Northeast 548 631 36,000  Level FlightAware
02:23AM 50.5510 -51.6600 65° Northeast 548 631 36,000  Level FlightAware
02:24AM 50.5880 -51.5370 65° Northeast 548 631 36,000  Level FlightAware
02:25AM 50.6240 -51.4140 65° Northeast 548 631 36,000  Level FlightAware
02:25AM 50.6600 -51.2900 65° Northeast 548 631 36,000  Level FlightAware
02:26AM 50.6970 -51.1670 65° Northeast 548 631 36,000  Level FlightAware
02:27AM 50.7420 -51.0130 65° Northeast 548 631 36,000  Level FlightAware
02:27AM 50.7790 -50.8890 65° Northeast 548 631 36,000  Level FlightAware
02:28AM 50.8150 -50.7660 65° Northeast 548 631 36,000  Level FlightAware
02:29AM 50.8520 -50.6420 65° Northeast 548 631 36,000  Level FlightAware
02:29AM 50.8880 -50.5180 65° Northeast 548 631 36,000  Level FlightAware
02:30AM 50.9833 -49.9333 65° Northeast 560 644 36,000  Level Gander Center
02:31AM 51.0333 -49.7167 70° East 560 644 36,000  Level Gander Center
02:32AM 51.0833 -49.4833 71° East 550 633 36,000  Level Gander Center
02:33AM 51.1333 -49.2500 71° East 560 644 36,000  Level Gander Center
02:36AM 51.2057 -48.9594 68° East  Level FlightAware Approximate
02:43AM 51.5652 -47.4570 68° East  Level FlightAware Approximate
02:44AM 51.6150 -47.2405 70° East  Level FlightAware Approximate
02:45AM 51.6643 -47.0234 70° East  Level FlightAware Approximate
02:46AM 51.7133 -46.8060 70° East  Level FlightAware Approximate
02:47AM 51.7619 -46.5880 70° East  Level FlightAware Approximate
02:48AM 51.8100 -46.3696 70° East  Level FlightAware Approximate
02:49AM 51.8578 -46.1507 70° East  Level FlightAware Approximate
02:50AM 51.9052 -45.9313 71° East  Level FlightAware Approximate
02:51AM 51.9521 -45.7115 71° East  Level FlightAware Approximate
02:52AM 51.9986 -45.4912 71° East  Level FlightAware Approximate
02:53AM 52.0447 -45.2705 71° East  Level FlightAware Approximate
02:54AM 52.0905 -45.0493 71° East  Level FlightAware Approximate
02:55AM 52.1357 -44.8276 72° East  Level FlightAware Approximate
02:56AM 52.1806 -44.6056 72° East  Level FlightAware Approximate
02:57AM 52.2251 -44.3830 72° East  Level FlightAware Approximate
02:58AM 52.2691 -44.1600 72° East  Level FlightAware Approximate
02:59AM 52.3128 -43.9366 72° East  Level FlightAware Approximate
03:00AM 52.3559 -43.7128 72° East  Level FlightAware Approximate
03:01AM 52.3987 -43.4885 73° East  Level FlightAware Approximate
03:02AM 52.4411 -43.2637 73° East  Level FlightAware Approximate
03:03AM 52.4830 -43.0386 73° East  Level FlightAware Approximate
03:04AM 52.5245 -42.8130 73° East  Level FlightAware Approximate
03:05AM 52.5656 -42.5870 73° East  Level FlightAware Approximate
03:06AM 52.6062 -42.3605 73° East  Level FlightAware Approximate
03:07AM 52.6464 -42.1337 74° East  Level FlightAware Approximate
03:08AM 52.6862 -41.9064 74° East  Level FlightAware Approximate
03:09AM 52.7255 -41.6787 74° East  Level FlightAware Approximate
03:10AM 52.7644 -41.4506 74° East  Level FlightAware Approximate
03:11AM 52.8028 -41.2222 74° East  Level FlightAware Approximate
03:12AM 52.8409 -40.9933 75° East  Level FlightAware Approximate
03:13AM 52.8784 -40.7640 75° East  Level FlightAware Approximate
03:14AM 52.9156 -40.5343 75° East  Level FlightAware Approximate
03:15AM 52.9523 -40.3042 75° East  Level FlightAware Approximate
03:16AM 52.9885 -40.0737 75° East  Level FlightAware Approximate
03:17AM 53.0225 -39.8421 77° East  Level FlightAware Approximate
03:18AM 53.0551 -39.6098 77° East  Level FlightAware Approximate
03:19AM 53.0873 -39.3771 77° East  Level FlightAware Approximate
03:20AM 53.1191 -39.1441 77° East  Level FlightAware Approximate
03:21AM 53.1504 -38.9107 77° East  Level FlightAware Approximate
03:22AM 53.1812 -38.6771 77° East  Level FlightAware Approximate
03:23AM 53.2116 -38.4430 78° East  Level FlightAware Approximate
03:24AM 53.2415 -38.2087 78° East  Level FlightAware Approximate
03:25AM 53.2710 -37.9740 78° East  Level FlightAware Approximate
03:26AM 53.3000 -37.7390 78° East  Level FlightAware Approximate
03:27AM 53.3285 -37.5037 78° East  Level FlightAware Approximate
03:28AM 53.3566 -37.2681 79° East  Level FlightAware Approximate
03:29AM 53.3842 -37.0321 79° East  Level FlightAware Approximate
03:30AM 53.4113 -36.7959 79° East  Level FlightAware Approximate
03:31AM 53.4380 -36.5593 79° East  Level FlightAware Approximate
03:32AM 53.4642 -36.3225 79° East  Level FlightAware Approximate
03:33AM 53.4903 -36.0855 79° East  Level FlightAware Approximate
03:34AM 53.5159 -35.8482 80° East  Level FlightAware Approximate
03:35AM 53.5411 -35.6106 80° East  Level FlightAware Approximate
03:36AM 53.5658 -35.3728 80° East  Level FlightAware Approximate
03:37AM 53.5901 -35.1347 80° East  Level FlightAware Approximate
03:38AM 53.6138 -34.8962 80° East  Level FlightAware Approximate
03:39AM 53.6371 -34.6576 81° East  Level FlightAware Approximate
03:40AM 53.6599 -34.4186 81° East  Level FlightAware Approximate
03:41AM 53.6823 -34.1795 81° East  Level FlightAware Approximate
03:42AM 53.7041 -33.9400 81° East  Level FlightAware Approximate
03:43AM 53.7257 -33.7004 81° East  Level FlightAware Approximate
03:44AM 53.7470 -33.4605 81° East  Level FlightAware Approximate
03:45AM 53.7679 -33.2205 82° East  Level FlightAware Approximate
03:46AM 53.7883 -32.9802 82° East  Level FlightAware Approximate
03:47AM 53.8082 -32.7397 82° East  Level FlightAware Approximate
03:48AM 53.8276 -32.4989 82° East  Level FlightAware Approximate
03:49AM 53.8466 -32.2580 82° East  Level FlightAware Approximate
03:50AM 53.8651 -32.0168 83° East  Level FlightAware Approximate
03:51AM 53.8830 -31.7754 83° East  Level FlightAware Approximate
03:52AM 53.9005 -31.5338 83° East  Level FlightAware Approximate
03:53AM 53.9175 -31.2920 83° East  Level FlightAware Approximate
03:54AM 53.9341 -31.0500 83° East  Level FlightAware Approximate
03:55AM 53.9501 -30.8078 83° East  Level FlightAware Approximate
03:56AM 53.9657 -30.5654 84° East  Level FlightAware Approximate
03:57AM 53.9807 -30.3229 84° East  Level FlightAware Approximate
03:58AM 53.9953 -30.0802 84° East  Level FlightAware Approximate
03:59AM 54.0226 -29.8411 76° East  Level FlightAware Approximate
04:00AM 54.0560 -29.6035 76° East  Level FlightAware Approximate
04:01AM 54.0889 -29.3655 77° East  Level FlightAware Approximate
04:02AM 54.1213 -29.1272 77° East  Level FlightAware Approximate
04:03AM 54.1533 -28.8885 77° East  Level FlightAware Approximate
04:04AM 54.1848 -28.6494 77° East  Level FlightAware Approximate
04:05AM 54.2158 -28.4100 77° East  Level FlightAware Approximate
04:06AM 54.2464 -28.1702 78° East  Level FlightAware Approximate
04:07AM 54.2765 -27.9301 78° East  Level FlightAware Approximate
04:08AM 54.3061 -27.6896 78° East  Level FlightAware Approximate
04:09AM 54.3352 -27.4488 78° East  Level FlightAware Approximate
04:10AM 54.3638 -27.2076 78° East  Level FlightAware Approximate
04:11AM 54.3909 -26.9657 79° East  Level FlightAware Approximate
04:12AM 54.4173 -26.7235 79° East  Level FlightAware Approximate
04:13AM 54.4432 -26.4810 79° East  Level FlightAware Approximate
04:14AM 54.4687 -26.2381 80° East  Level FlightAware Approximate
04:15AM 54.4937 -25.9950 80° East  Level FlightAware Approximate
04:16AM 54.5183 -25.7516 79° East  Level FlightAware Approximate
04:17AM 54.5445 -25.5085 79° East  Level FlightAware Approximate
04:18AM 54.5701 -25.2651 80° East  Level FlightAware Approximate
04:19AM 54.5953 -25.0214 80° East  Level FlightAware Approximate
04:20AM 54.6200 -24.7775 80° East  Level FlightAware Approximate
04:21AM 54.6442 -24.5332 80° East  Level FlightAware Approximate
04:22AM 54.6679 -24.2886 80° East  Level FlightAware Approximate
04:23AM 54.6911 -24.0438 81° East  Level FlightAware Approximate
04:24AM 54.7138 -23.7986 81° East  Level FlightAware Approximate
04:25AM 54.7360 -23.5532 81° East  Level FlightAware Approximate
04:26AM 54.7577 -23.3076 81° East  Level FlightAware Approximate
04:27AM 54.7789 -23.0616 81° East  Level FlightAware Approximate
04:28AM 54.7996 -22.8154 82° East  Level FlightAware Approximate
04:29AM 54.8199 -22.5690 82° East  Level FlightAware Approximate
04:30AM 54.8396 -22.3223 82° East  Level FlightAware Approximate
04:31AM 54.8588 -22.0754 82° East  Level FlightAware Approximate
04:32AM 54.8775 -21.8283 82° East  Level FlightAware Approximate
04:33AM 54.8957 -21.5809 83° East  Level FlightAware Approximate
04:34AM 54.9135 -21.3333 83° East  Level FlightAware Approximate
04:35AM 54.9307 -21.0855 83° East  Level FlightAware Approximate
04:36AM 54.9474 -20.8375 83° East  Level FlightAware Approximate
04:37AM 54.9636 -20.5893 83° East  Level FlightAware Approximate
04:38AM 54.9793 -20.3409 84° East  Level FlightAware Approximate
04:39AM 54.9945 -20.0922 84° East  Level FlightAware Approximate
04:40AM 54.9930 -19.8432 94° East  Level FlightAware Approximate
04:41AM 54.9815 -19.5940 95° East  Level FlightAware Approximate
04:42AM 54.9694 -19.3449 95° East  Level FlightAware Approximate
04:43AM 54.9568 -19.0960 95° East  Level FlightAware Approximate
04:44AM 54.9438 -18.8472 95° East  Level FlightAware Approximate
04:45AM 54.9302 -18.5986 95° East  Level FlightAware Approximate
04:46AM 54.9161 -18.3502 96° East  Level FlightAware Approximate
04:47AM 54.9016 -18.1020 96° East  Level FlightAware Approximate
04:48AM 54.8865 -17.8540 96° East  Level FlightAware Approximate
04:49AM 54.8709 -17.6061 96° East  Level FlightAware Approximate
04:50AM 54.8548 -17.3584 96° East  Level FlightAware Approximate
04:51AM 54.8382 -17.1110 97° East  Level FlightAware Approximate
04:52AM 54.8210 -16.8637 97° East  Level FlightAware Approximate
04:53AM 54.8034 -16.6166 97° East  Level FlightAware Approximate
04:54AM 54.7853 -16.3698 97° East  Level FlightAware Approximate
04:54AM 54.8560 -13.7310 97° East 536 617 37,000  Level FlightAware
04:55AM 54.7667 -16.1232 97° East  Level FlightAware Approximate
04:55AM 54.8340 -13.5630 103° East 535 616 37,000  Level FlightAware
04:56AM 54.8060 -13.3420 102° East 535 616 37,000  Level FlightAware
04:57AM 54.7810 -13.1560 103° East 530 610 37,000  Level FlightAware
04:57AM 54.7580 -12.9830 103° East 529 609 37,000  Level FlightAware
04:58AM 54.7350 -12.8080 103° East 529 609 37,000  Level FlightAware
04:59AM 54.7030 -12.5740 103° East 530 610 37,000  Level FlightAware
05:00AM 54.6680 -12.3260 104° East 530 610 37,000  Level FlightAware
05:01AM 54.6450 -12.1630 104° East 530 610 37,000  Level FlightAware
05:01AM 54.6220 -11.9980 103° East 530 610 37,000  Level FlightAware
05:02AM 54.5940 -11.8080 104° East 530 610 37,000  Level FlightAware
05:03AM 54.5710 -11.6460 104° East 531 611 37,000  Level FlightAware
05:03AM 54.5460 -11.4790 104° East 531 611 37,000  Level FlightAware
05:04AM 54.5190 -11.2980 104° East 532 612 37,000  Level FlightAware
05:05AM 54.4970 -11.1530 105° East 533 613 37,000  Level FlightAware
05:05AM 54.4730 -10.9930 104° East 533 613 37,000  Level FlightAware
05:06AM 54.4410 -10.7860 105° East 531 611 37,000  Level FlightAware
05:07AM 54.4130 -10.6050 105° East 532 612 37,000  Level FlightAware
05:08AM 54.3870 -10.4390 105° East 532 612 37,000  Level FlightAware
05:08AM 54.3630 -10.2920 106° East 534 615 37,000  Level FlightAware
05:09AM 54.3150 -9.9910 105° East 535 616 37,000  Level FlightAware
05:10AM 54.2910 -9.8420 105° East 535 616 37,000  Level FlightAware
05:11AM 54.2590 -9.6520 106° East 535 616 37,000  Level FlightAware
05:12AM 54.2280 -9.4680 106° East 534 615 37,000  Level FlightAware
05:12AM 54.2040 -9.3230 106° East 534 615 37,000  Level FlightAware
05:13AM 54.1730 -9.1390 106° East 534 615 37,000 -1,080 Level FlightAware
05:14AM 54.1336 -8.9571 106° East 454 522 35,500  Descending FlightAware UK
05:14AM 54.1410 -8.9550 106° East 532 612 37,000  Climbing FlightAware
05:14AM 54.1171 -8.8610 106° East 452 520 35,500 -2,520 Descending FlightAware UK
05:14AM 54.1044 -8.7887 107° East 452 520 35,500 4,080 Level FlightAware UK
05:14AM 54.1140 -8.7960 107° East 530 610 37,000  Climbing FlightAware
05:15AM 54.0876 -8.6928 107° East 452 520 35,500 -2,400 Descending FlightAware UK
05:15AM 54.0752 -8.6206 106° East 450 518 35,500 2,520 Level FlightAware UK
05:15AM 54.0750 -8.5750 107° East 530 610 37,000 -360 Climbing FlightAware
05:15AM 54.0625 -8.5485 107° East 452 520 35,400 -5,100 Descending FlightAware UK
05:16AM 54.0497 -8.4759 107° East 452 520 35,400  Level FlightAware UK
05:16AM 54.0370 -8.4043 107° East 452 520 35,400 3,660 Level FlightAware UK
05:16AM 54.0430 -8.3940 107° East 529 609 37,000 240 Climbing FlightAware
05:16AM 54.0200 -8.3088 107° East 454 522 35,500 -2,700 Descending FlightAware UK
05:17AM 54.0072 -8.2372 107° East 452 520 35,500 3,720 Level FlightAware UK
05:17AM 54.0150 -8.2380 107° East 529 609 37,000  Climbing FlightAware
05:17AM 53.9900 -8.1418 107° East 452 520 35,500 -2,520 Descending FlightAware UK
05:17AM 53.9774 -8.0703 107° East 450 518 35,500 2,400 Level FlightAware UK
05:18AM 53.9750 -8.0190 107° East 528 608 37,000 -180 Climbing FlightAware
05:18AM 53.9515 -7.9274 107° East 450 518 35,400 -2,760 Descending FlightAware UK
05:18AM 53.9385 -7.8562 107° East 450 518 35,400 4,140 Level FlightAware UK
05:18AM 53.9470 -7.8680 107° East 527 606 37,000  Climbing FlightAware
05:19AM 53.9211 -7.7614 107° East 450 518 35,400 -2,640 Descending FlightAware UK
05:19AM 53.9080 -7.6904 107° East 448 516 35,400 3,660 Level FlightAware UK
05:19AM 53.9130 -7.6820 107° East 529 609 37,000  Climbing FlightAware
05:19AM 53.8906 -7.5959 107° East 448 516 35,400 -2,880 Descending FlightAware UK
05:20AM 53.8777 -7.5250 107° East 448 516 35,400 3,300 Level FlightAware UK
05:20AM 53.8820 -7.5180 107° East 528 608 37,000  Climbing FlightAware
05:20AM 53.8556 -7.4072 107° East 448 516 35,400 -2,640 Descending FlightAware UK
05:20AM 53.8424 -7.3368 108° East 448 516 35,400  Level FlightAware UK
05:21AM 53.8291 -7.2664 108° East 448 516 35,400 4,140 Level FlightAware UK
05:21AM 53.8390 -7.2850 108° East 527 606 37,000 240 Climbing FlightAware
05:21AM 53.8112 -7.1717 108° East 448 516 35,500 -2,460 Descending FlightAware UK
05:21AM 53.7979 -7.1013 108° East 448 516 35,500 2,880 Level FlightAware UK
05:22AM 53.7980 -7.0730 108° East 527 606 37,000  Climbing FlightAware
05:22AM 53.7757 -6.9842 108° East 448 516 35,500 -2,580 Descending FlightAware UK
05:22AM 53.7622 -6.9139 108° East 448 516 35,500 3,900 Level FlightAware UK
05:22AM 53.7700 -6.9240 108° East 528 608 37,000  Climbing FlightAware
05:23AM 53.7441 -6.8206 108° East 448 516 35,500 -2,460 Descending FlightAware UK
05:23AM 53.7305 -6.7506 108° East 448 516 35,500 3,420 Level FlightAware UK
05:23AM 53.7350 -6.7450 108° East 527 606 37,000  Climbing FlightAware
05:23AM 53.7124 -6.6573 108° East 448 516 35,500 -2,700 Descending FlightAware UK
05:24AM 53.6987 -6.5874 108° East 450 518 35,500 3,720 Level FlightAware UK
05:24AM 53.7030 -6.5810 108° East 526 605 37,000  Climbing FlightAware
05:24AM 53.6806 -6.4942 108° East 450 518 35,500 -2,520 Descending FlightAware UK
05:24AM 53.6669 -6.4243 108° East 450 518 35,500 3,300 Level FlightAware UK
05:24AM 53.6690 -6.4090 108° East 526 605 37,000  Climbing FlightAware
05:25AM 53.6484 -6.3314 108° East 452 520 35,500 -2,760 Descending FlightAware UK
05:25AM 53.6345 -6.2619 109° East 452 520 35,500 3,600 Level FlightAware UK
05:25AM 53.6370 -6.2510 109° East 526 605 37,000  Climbing FlightAware
05:25AM 53.6161 -6.1691 109° East 452 520 35,500 -2,580 Descending FlightAware UK
05:26AM 53.6023 -6.0996 109° East 452 520 35,500 3,180 Level FlightAware UK
05:26AM 53.6030 -6.0780 109° East 524 603 37,000  Climbing FlightAware
05:26AM 53.5788 -5.9834 109° East 454 522 35,500  Descending FlightAware UK
05:27AM 53.5720 -5.9280 109° East 524 603 37,000  Climbing FlightAware
05:27AM 53.5509 -5.8452 109° East 454 522 35,500 -2,700 Descending FlightAware UK
05:27AM 53.5369 -5.7765 109° East 452 520 35,500 4,680 Level FlightAware UK
05:27AM 53.5450 -5.7930 109° East 523 602 37,000  Climbing FlightAware
05:27AM 53.5229 -5.7077 109° East 452 520 35,500 -2,580 Descending FlightAware UK
05:28AM 53.5088 -5.6389 109° East 452 520 35,500 2,700 Level FlightAware UK
05:28AM 53.5060 -5.5960 109° East 518 596 37,000  Climbing FlightAware
05:28AM 53.4904 -5.5230 109° East 450 518 35,500 -2,760 Descending FlightAware UK
05:29AM 53.4831 -5.4530 100° East 454 522 35,500 3,600 Level FlightAware UK
05:29AM 53.4880 -5.4430 100° East 509 586 37,000  Climbing FlightAware
05:29AM 53.4778 -5.3592 100° East 454 522 35,500  Descending FlightAware UK
05:29AM 53.4800 -5.2650 100° East 503 579 37,000  Climbing FlightAware
05:30AM 53.4720 -5.1722 100° East 450 518 35,500 -2,400 Descending FlightAware UK
05:30AM 53.4696 -5.1024 93° East 450 518 35,500 4,500 Level FlightAware UK
05:30AM 53.4750 -5.1090 93° East 502 578 37,000  Climbing FlightAware
05:30AM 53.4672 -5.0326 93° East 450 518 35,500 -2,700 Descending FlightAware UK
05:31AM 53.4649 -4.9628 93° East 452 520 35,500 3,060 Level FlightAware UK
05:31AM 53.4690 -4.9390 93° East 501 577 37,000  Climbing FlightAware
05:31AM 53.4614 -4.8466 93° East 450 518 35,500  Descending FlightAware UK
05:31AM 53.4640 -4.7830 93° East 500 575 37,000  Climbing FlightAware
05:32AM 53.4565 -4.7076 93° East 450 518 35,500  Descending FlightAware UK
05:32AM 53.4580 -4.6270 93° East 501 577 37,000  Climbing FlightAware
05:32AM 53.4507 -4.5452 93° East 448 516 35,500 -2,580 Descending FlightAware UK
05:33AM 53.4483 -4.4754 93° East 448 516 35,500 3,180 Level FlightAware UK
05:33AM 53.4520 -4.4550 93° East 503 579 37,000  Climbing FlightAware
05:33AM 53.4432 -4.3349 93° East 450 518 35,500  Descending FlightAware UK
05:34AM 53.4460 -4.2960 93° East 504 580 37,000  Climbing FlightAware
05:34AM 53.4388 -4.2184 93° East 450 518 35,500 -2,220 Descending FlightAware UK
05:34AM 53.4350 -4.1251 94° East 448 516 35,500 3,180 Level FlightAware UK
05:34AM 53.4400 -4.1270 94° East 504 580 37,000  Climbing FlightAware
05:35AM 53.4294 -3.9853 94° East 448 516 35,500  Descending FlightAware UK
05:35AM 53.4330 -3.9690 94° East 504 580 37,000  Climbing FlightAware
05:35AM 53.4256 -3.8919 94° East 452 520 35,500  Descending FlightAware UK
05:36AM 53.4270 -3.8180 94° East 503 579 37,000 2,640 Climbing FlightAware
05:36AM 53.4248 -3.7664 94° East 503 579 37,000 -3,000 Level FlightAware ADS-B
05:36AM 53.4170 -3.6824 94° East 454 522 35,500  Descending FlightAware UK
05:36AM 53.4189 -3.6361 94° East 503 579 37,000 3,060 Climbing FlightAware ADS-B
05:37AM 53.4146 -3.5772 97° East 510 587 37,000 -2,700 Level FlightAware ADS-B
05:37AM 53.4006 -3.4954 97° East 452 520 35,500  Descending FlightAware UK
05:37AM 53.4011 -3.4796 97° East 518 596 37,000 4,980 Climbing FlightAware ADS-B
05:37AM 53.3922 -3.4342 108° East 522 601 37,000  Level FlightAware ADS-B
05:38AM 53.3677 -3.3415 114° Southeast 528 608 37,000 -2,040 Level FlightAware ADS-B
05:38AM 53.3369 -3.2506 114° Southeast 450 518 35,400  Descending FlightAware UK
05:38AM 53.3286 -3.2173 114° Southeast 530 610 37,000 120 Climbing FlightAware ADS-B
05:39AM 53.2957 -3.1198 114° Southeast 450 518 35,500  Descending FlightAware UK
05:39AM 53.2874 -3.0849 114° Southeast 525 604 37,000 3,060 Climbing FlightAware ADS-B
05:39AM 53.2738 -3.0222 110° East 517 595 37,000 -3,000 Level FlightAware ADS-B
05:39AM 53.2546 -2.9405 110° East 448 516 35,200 -1,020 Descending FlightAware UK
05:40AM 53.2507 -2.9089 110° East 515 593 36,500 -1,440 Climbing FlightAware ADS-B
05:40AM 53.2312 -2.8274 110° East 448 516 34,500 -1,380 Descending FlightAware UK
05:40AM 53.2240 -2.7770 109° East 516 594 35,700 -1,380 Climbing FlightAware
05:40AM 53.2174 -2.7596 109° East 448 516 34,100 -1,500 Descending FlightAware UK
05:40AM 53.2172 -2.7430 108° East 516 594 35,500 -1,200 Climbing FlightAware ADS-B
05:41AM 53.1949 -2.6463 108° East 452 520 33,500 -1,080 Descending FlightAware UK
05:41AM 53.1909 -2.6118 108° East 516 594 34,900 -1,020 Climbing FlightAware ADS-B
05:41AM 53.1718 -2.5327 108° East 450 518 33,000 -1,140 Descending FlightAware UK
05:42AM 53.1527 -2.4307 108° East 514 592 34,000 -660 Climbing FlightAware ADS-B
05:42AM 53.1163 -2.3389 108° East 444 511 32,400  Descending FlightAware UK
05:42AM 53.1020 -2.3130 108° East 528 608 34,000  Climbing FlightAware
05:43AM 53.0625 -2.2568 108° East 444 511 32,400 -3,000 Descending FlightAware UK
05:43AM 53.0238 -2.2210 151° Southeast 446 513 32,300 3,480 Descending FlightAware UK
05:43AM 53.0190 -2.2230 151° Southeast 533 613 33,800 -1,440 Climbing FlightAware
05:44AM 52.9303 -2.1486 151° Southeast 448 516 31,300 -1,620 Descending FlightAware UK
05:44AM 52.9240 -2.1490 151° Southeast 524 603 32,600 -1,800 Climbing FlightAware
05:44AM 52.8779 -2.1078 151° Southeast 442 509 30,600 -5,280 Descending FlightAware UK
05:44AM 52.8390 -2.0781 155° Southeast 446 513 29,700 960 Descending FlightAware UK
05:44AM 52.8360 -2.0820 155° Southeast 520 598 31,000 -3,600 Climbing FlightAware
05:45AM 52.7727 -2.0268 155° Southeast 458 527 27,900 -3,480 Descending FlightAware UK
05:45AM 52.7460 -2.0120 155° Southeast 531 611 28,700 -2,700 Climbing FlightAware
05:45AM 52.6927 -1.9645 155° Southeast 458 527 26,300 -2,160 Descending FlightAware UK
05:46AM 52.6450 -1.9350 155° Southeast 517 595 27,100 -120 Climbing FlightAware
05:46AM 52.5977 -1.9005 156° South 26,400 -2,160 Descending FlightAware ADS-B
05:46AM 52.5868 -1.8924 156° South 508 585 26,200 -5,820 Descending FlightAware ADS-B
05:47AM 52.5368 -1.8494 156° South 438 504 23,900 -2,220 Descending FlightAware UK
05:47AM 52.5225 -1.8454 156° South 501 577 25,100 -2,280 Climbing FlightAware ADS-B
05:47AM 52.4859 -1.8123 156° South 436 502 23,000 -2,040 Descending FlightAware UK
05:47AM 52.4556 -1.7968 156° South 491 565 24,000 -2,040 Climbing FlightAware ADS-B
05:48AM 52.3987 -1.7489 156° South 424 488 21,600 -2,040 Descending FlightAware UK
05:48AM 52.3871 -1.7467 156° South 483 556 22,900 -1,800 Climbing FlightAware ADS-B
05:48AM 52.3377 -1.7046 156° South 422 486 20,700 -1,980 Descending FlightAware UK
05:48AM 52.3247 -1.7019 156° South 471 542 21,900 -2,040 Climbing FlightAware ADS-B
05:49AM 52.2787 -1.6623 156° South 414 476 19,700 -1,860 Descending FlightAware UK
05:49AM 52.2586 -1.6550 156° South 459 528 20,900 2,700 Climbing FlightAware ADS-B
05:49AM 52.2458 -1.6447 154° Southeast 457 526 20,600 -2,160 Descending FlightAware ADS-B
05:49AM 52.2280 -1.6264 148° Southeast 452 520 20,300 -4,980 Descending FlightAware ADS-B
05:50AM 52.1914 -1.5781 148° Southeast 408 470 18,300 -1,320 Descending FlightAware UK
05:50AM 52.1765 -1.5633 148° Southeast 436 502 19,600 -1,500 Climbing FlightAware ADS-B
05:50AM 52.1340 -1.5075 148° Southeast 396 456 17,400 -1,800 Descending FlightAware UK
05:50AM 52.1290 -1.5042 148° Southeast 426 490 18,700 -2,040 Climbing FlightAware ADS-B
05:51AM 52.0966 -1.4607 148° Southeast 390 449 16,600 -2,280 Descending FlightAware UK
05:51AM 52.0788 -1.4412 148° Southeast 423 487 17,500 -2,340 Climbing FlightAware ADS-B
05:51AM 52.0406 -1.3902 148° Southeast 382 440 15,200 -2,160 Descending FlightAware UK
05:51AM 52.0319 -1.3827 148° Southeast 422 486 16,400 -2,220 Climbing FlightAware ADS-B
05:52AM 51.9940 -1.3323 148° Southeast 382 440 14,100 -2,220 Descending FlightAware UK
05:52AM 51.9849 -1.3248 148° Southeast 410 472 15,300 -1,620 Climbing FlightAware ADS-B
05:52AM 51.9489 -1.2783 148° Southeast 352 405 13,300 -1,200 Descending FlightAware UK
05:52AM 51.9405 -1.2707 148° Southeast 368 423 14,700 1,380 Climbing FlightAware ADS-B
05:53AM 51.9017 -1.2233 143° Southeast 340 391 14,300 -2,880 Descending FlightAware ADS-B
05:53AM 51.8710 -1.1830 143° Southeast 308 354 12,400 -720 Descending FlightAware UK
05:53AM 51.8704 -1.1850 143° Southeast 331 381 14,000  Climbing FlightAware ADS-B
05:54AM 51.8414 -1.1469 143° Southeast 300 345 12,400  Descending FlightAware UK
05:54AM 51.8288 -1.1344 143° Southeast 337 388 14,000 2,880 Climbing FlightAware ADS-B
05:54AM 51.8085 -1.1098 143° Southeast 341 392 14,000  Level FlightAware ADS-B
05:54AM 51.7981 -1.0959 140° Southeast 340 391 14,000  Level FlightAware ADS-B
05:54AM 51.7891 -1.0799 132° Southeast 337 388 14,000  Level FlightAware ADS-B
05:54AM 51.7835 -1.0670 125° Southeast 334 384 14,000  Level FlightAware ADS-B
05:55AM 51.7787 -1.0536 120° Southeast 332 382 14,000  Level FlightAware ADS-B
05:55AM 51.7728 -1.0329 115° Southeast 328 377 14,000 -360 Level FlightAware ADS-B
05:55AM 51.7692 -1.0140 107° East 325 374 13,900 -1,140 Descending FlightAware ADS-B
05:55AM 51.7668 -0.9936 101° East 321 369 13,700 -1,380 Descending FlightAware ADS-B
05:55AM 51.7622 -0.9279 96° East 320 368 13,100 -3,660 Descending FlightAware ADS-B
05:56AM 51.7506 -0.8778 96° East 302 348 11,100 -1,560 Descending FlightAware UK
05:56AM 51.7576 -0.8642 96° East 320 368 12,400 -1,380 Climbing FlightAware ADS-B
05:56AM 51.7442 -0.7926 96° East 300 345 10,300 -1,380 Descending FlightAware UK
05:56AM 51.7526 -0.7921 96° East 317 365 11,700 1,320 Climbing FlightAware ADS-B
05:57AM 51.7480 -0.7242 96° East 310 357 11,100 -1,260 Descending FlightAware ADS-B
05:57AM 51.7440 -0.6677 97° East 307 353 10,600 -1,260 Descending FlightAware ADS-B
05:58AM 51.7390 -0.6004 97° East 303 349 10,000 -1,320 Descending FlightAware ADS-B
05:58AM 51.7368 -0.5719 97° East 294 338 9,700 -1,440 Descending FlightAware ADS-B
05:58AM 51.7358 -0.5632 101° East 290 334 9,600 -780 Descending FlightAware ADS-B
05:58AM 51.7345 -0.5565 107° East 287 330 9,600 -780 Level FlightAware ADS-B
05:58AM 51.7323 -0.5489 115° Southeast 282 325 9,500 -1,740 Descending FlightAware ADS-B
05:58AM 51.7298 -0.5430 124° Southeast 278 320 9,400 -900 Descending FlightAware ADS-B
05:58AM 51.7266 -0.5370 131° Southeast 276 318 9,400 -600 Level FlightAware ADS-B
05:58AM 51.7215 -0.5272 130° Southeast 272 313 9,300 -1,200 Descending FlightAware ADS-B
05:59AM 51.7192 -0.5217 124° Southeast 271 312 9,200 -720 Descending FlightAware ADS-B
05:59AM 51.7115 -0.4967 116° Southeast 265 305 9,100 -840 Descending FlightAware ADS-B
05:59AM 51.7065 -0.4801 116° Southeast 263 303 8,900 -1,020 Descending FlightAware ADS-B
05:59AM 51.6989 -0.4552 116° Southeast 260 299 8,700 -960 Descending FlightAware ADS-B
05:59AM 51.6926 -0.4350 117° Southeast 261 300 8,500 -1,140 Descending FlightAware ADS-B
06:00AM 51.6846 -0.4081 116° Southeast 257 296 8,200 -780 Descending FlightAware ADS-B
06:00AM 51.6768 -0.3819 116° Southeast 254 292 8,100 -600 Descending FlightAware ADS-B
06:00AM 51.6691 -0.3562 116° Southeast 253 291 7,900 -600 Descending FlightAware ADS-B
06:00AM 51.6616 -0.3308 115° Southeast 250 288 7,800 -600 Descending FlightAware ADS-B
06:01AM 51.6539 -0.3047 115° Southeast 250 288 7,600 -780 Descending FlightAware ADS-B
06:01AM 51.6464 -0.2786 115° Southeast 251 289 7,400 -780 Descending FlightAware ADS-B
06:01AM 51.6381 -0.2503 115° Southeast 255 293 7,200 -720 Descending FlightAware ADS-B
06:01AM 51.6295 -0.2209 115° Southeast 256 295 7,000 -960 Descending FlightAware ADS-B
06:02AM 51.6219 -0.1943 115° Southeast 255 293 6,700 -960 Descending FlightAware ADS-B
06:02AM 51.6169 -0.1772 115° Southeast 255 293 6,600 -780 Descending FlightAware ADS-B
06:02AM 51.6100 -0.1530 115° Southeast 254 292 6,400 -900 Descending FlightAware ADS-B
06:02AM 51.6070 -0.1433 117° Southeast 253 291 6,300 -600 Descending FlightAware ADS-B
06:02AM 51.6044 -0.1370 124° Southeast 251 289 6,300  Level FlightAware ADS-B
06:02AM 51.6021 -0.1324 129° Southeast 249 287 6,300 -780 Level FlightAware ADS-B
06:02AM 51.5983 -0.1245 128° Southeast 248 285 6,200 -1,020 Descending FlightAware ADS-B
06:03AM 51.5927 -0.1157 136° Southeast 245 282 6,100 -600 Descending FlightAware ADS-B
06:03AM 51.5899 -0.1124 144° Southeast 242 278 6,100 -780 Level FlightAware ADS-B
06:03AM 51.5859 -0.1090 153° Southeast 239 275 6,000 -1,500 Descending FlightAware ADS-B
06:03AM 51.5819 -0.1067 160° South 234 269 5,900 -720 Descending FlightAware ADS-B
06:03AM 51.5760 -0.1050 169° South 230 265 5,900 -900 Level FlightAware ADS-B
06:03AM 51.5603 -0.1025 174° South 223 257 5,600 -840 Descending FlightAware ADS-B
06:03AM 51.5451 -0.0998 174° South 214 246 5,500 -480 Descending FlightAware ADS-B
06:04AM 51.5333 -0.0978 174° South 203 234 5,400 -840 Descending FlightAware ADS-B
06:04AM 51.5248 -0.0998 188° South 193 222 5,200 -960 Descending FlightAware ADS-B
06:04AM 51.5217 -0.1021 205° Southwest 188 216 5,200 -1,140 Level FlightAware ADS-B
06:04AM 51.5169 -0.1085 220° Southwest 183 211 5,000 -1,140 Descending FlightAware ADS-B
06:04AM 51.5151 -0.1119 230° Southwest 178 205 5,000 -600 Level FlightAware ADS-B
06:04AM 51.5126 -0.1190 240° Southwest 175 201 4,900 -1,380 Descending FlightAware ADS-B
06:04AM 51.5071 -0.1370 244° Southwest 171 197 4,500 -1,740 Descending FlightAware ADS-B
06:05AM 51.5013 -0.1549 242° Southwest 167 192 4,000 -1,800 Descending FlightAware ADS-B
06:05AM 51.4959 -0.1712 242° Southwest 159 183 3,600 -1,500 Descending FlightAware ADS-B
06:05AM 51.4932 -0.1801 244° Southwest 155 178 3,400 -1,440 Descending FlightAware ADS-B
06:05AM 51.4917 -0.1935 260° West 153 176 3,100 -1,200 Descending FlightAware ADS-B
06:05AM 51.4924 -0.2086 274° West 152 175 2,900 -600 Descending FlightAware ADS-B
06:06AM 51.4927 -0.2189 273° West 154 177 2,900 -3,780 Level FlightAware ADS-B
06:06AM 51.4781 -0.2267 273° West 172 198 1,100 -900 Descending FlightAware UK
06:06AM 51.4927 -0.2493 273° West 158 182 2,500 -1,020 Climbing FlightAware ADS-B
06:06AM 51.4781 -0.2543 273° West 164 189 700 -780 Descending FlightAware UK
06:07AM 51.4930 -0.2900 273° West 156 180 2,000 1,140 Climbing FlightAware
06:07AM 51.4930 -0.3190 270° West 156 180 1,600 -900 Descending FlightAware
06:08AM 51.4930 -0.3530 270° West 152 175 1,200 -840 Descending FlightAware
06:08AM 51.4930 -0.3730 270° West 158 182 1,000 -900 Descending FlightAware
06:08AM 51.4940 -0.4000 273° West 145 167 600 -900 Descending FlightAware
06:09AM 51.4940 -0.4350 270° West 150 173 200 -720 Descending FlightAware
06:09AM 51.4940 -0.4490 270° West 152 175 100 -180 Descending FlightAware
06:09AM 51.4940 -0.4740 270° West 152 175 100  Level FlightAware